sensor_id;sensor_type;location;lat;lon;timestamp;temperature;humidity
7218;DHT22;3650;53.580;10.094;2023-07-20T00:00:06;17.10;85.00
7218;DHT22;3650;53.580;10.094;2023-07-20T00:02:34;17.10;85.10
7218;DHT22;3650;53.580;10.094;2023-07-20T00:05:00;17.10;86.90
7218;DHT22;3650;53.580;10.094;2023-07-20T00:07:27;17.10;87.20
7218;DHT22;3650;53.580;10.094;2023-07-20T00:09:55;17.10;87.30
7218;DHT22;3650;53.580;10.094;2023-07-20T00:12:22;17.10;87.60
7218;DHT22;3650;53.580;10.094;2023-07-20T00:14:49;17.10;87.60
7218;DHT22;3650;53.580;10.094;2023-07-20T00:17:19;17.10;87.70
7218;DHT22;3650;53.580;10.094;2023-07-20T00:19:46;17.10;87.30
7218;DHT22;3650;53.580;10.094;2023-07-20T00:22:12;17.10;87.10
7218;DHT22;3650;53.580;10.094;2023-07-20T00:24:39;17.10;87.30
7218;DHT22;3650;53.580;10.094;2023-07-20T00:27:08;17.10;87.50
7218;DHT22;3650;53.580;10.094;2023-07-20T00:29:34;17.10;87.90
7218;DHT22;3650;53.580;10.094;2023-07-20T00:32:02;17.20;87.60
7218;DHT22;3650;53.580;10.094;2023-07-20T00:34:30;17.20;88.00
7218;DHT22;3650;53.580;10.094;2023-07-20T00:36:57;17.20;87.60
7218;DHT22;3650;53.580;10.094;2023-07-20T00:39:23;17.20;87.50
7218;DHT22;3650;53.580;10.094;2023-07-20T00:41:50;17.20;86.80
7218;DHT22;3650;53.580;10.094;2023-07-20T00:44:19;17.30;86.80
7218;DHT22;3650;53.580;10.094;2023-07-20T00:46:46;17.30;86.00
7218;DHT22;3650;53.580;10.094;2023-07-20T00:49:13;17.20;85.10
7218;DHT22;3650;53.580;10.094;2023-07-20T00:51:41;17.30;84.70
7218;DHT22;3650;53.580;10.094;2023-07-20T00:54:08;17.20;84.30
7218;DHT22;3650;53.580;10.094;2023-07-20T00:56:35;17.20;83.80
7218;DHT22;3650;53.580;10.094;2023-07-20T00:59:02;17.20;83.70
7218;DHT22;3650;53.580;10.094;2023-07-20T01:01:30;17.20;83.90
7218;DHT22;3650;53.580;10.094;2023-07-20T01:03:57;17.20;85.70
7218;DHT22;3650;53.580;10.094;2023-07-20T01:06:29;17.10;85.90
7218;DHT22;3650;53.580;10.094;2023-07-20T01:09:04;17.10;88.50
7218;DHT22;3650;53.580;10.094;2023-07-20T01:11:37;17.10;87.80
7218;DHT22;3650;53.580;10.094;2023-07-20T01:14:05;17.10;88.50
7218;DHT22;3650;53.580;10.094;2023-07-20T01:16:34;17.10;89.20
7218;DHT22;3650;53.580;10.094;2023-07-20T01:19:00;17.10;89.60
7218;DHT22;3650;53.580;10.094;2023-07-20T01:21:31;17.10;90.00
7218;DHT22;3650;53.580;10.094;2023-07-20T01:24:19;17.10;90.10
7218;DHT22;3650;53.580;10.094;2023-07-20T01:27:20;17.10;90.10
7218;DHT22;3650;53.580;10.094;2023-07-20T01:32:47;17.20;90.40
7218;DHT22;3650;53.580;10.094;2023-07-20T01:35:16;17.20;90.60
7218;DHT22;3650;53.580;10.094;2023-07-20T01:37:44;17.10;90.90
7218;DHT22;3650;53.580;10.094;2023-07-20T01:40:13;17.10;91.10
7218;DHT22;3650;53.580;10.094;2023-07-20T01:42:44;17.10;91.20
7218;DHT22;3650;53.580;10.094;2023-07-20T01:45:11;17.10;91.60
7218;DHT22;3650;53.580;10.094;2023-07-20T01:47:37;17.10;91.80
7218;DHT22;3650;53.580;10.094;2023-07-20T01:50:07;17.00;92.20
7218;DHT22;3650;53.580;10.094;2023-07-20T01:52:34;17.00;92.30
7218;DHT22;3650;53.580;10.094;2023-07-20T01:55:01;17.00;92.60
7218;DHT22;3650;53.580;10.094;2023-07-20T01:57:28;17.00;92.70
7218;DHT22;3650;53.580;10.094;2023-07-20T01:59:54;17.00;92.80
7218;DHT22;3650;53.580;10.094;2023-07-20T02:02:23;17.00;93.00
7218;DHT22;3650;53.580;10.094;2023-07-20T02:04:50;17.00;93.30
7218;DHT22;3650;53.580;10.094;2023-07-20T02:07:18;16.90;93.60
7218;DHT22;3650;53.580;10.094;2023-07-20T02:09:45;16.90;93.50
7218;DHT22;3650;53.580;10.094;2023-07-20T02:12:12;16.80;93.50
7218;DHT22;3650;53.580;10.094;2023-07-20T02:14:38;16.80;93.80
7218;DHT22;3650;53.580;10.094;2023-07-20T02:17:05;16.70;94.40
7218;DHT22;3650;53.580;10.094;2023-07-20T02:19:32;16.70;95.00
7218;DHT22;3650;53.580;10.094;2023-07-20T02:21:59;16.70;95.10
7218;DHT22;3650;53.580;10.094;2023-07-20T02:24:27;16.70;95.50
7218;DHT22;3650;53.580;10.094;2023-07-20T02:26:54;16.70;95.40
7218;DHT22;3650;53.580;10.094;2023-07-20T02:29:21;16.70;95.90
7218;DHT22;3650;53.580;10.094;2023-07-20T02:31:47;16.70;96.10
7218;DHT22;3650;53.580;10.094;2023-07-20T02:34:14;16.70;96.60
7218;DHT22;3650;53.580;10.094;2023-07-20T02:36:41;16.70;96.50
7218;DHT22;3650;53.580;10.094;2023-07-20T02:39:08;16.70;96.50
7218;DHT22;3650;53.580;10.094;2023-07-20T02:41:37;16.70;96.60
7218;DHT22;3650;53.580;10.094;2023-07-20T02:44:04;16.70;96.50
7218;DHT22;3650;53.580;10.094;2023-07-20T02:46:30;16.80;96.70
7218;DHT22;3650;53.580;10.094;2023-07-20T02:48:57;16.70;96.90
7218;DHT22;3650;53.580;10.094;2023-07-20T02:51:24;16.70;96.80
7218;DHT22;3650;53.580;10.094;2023-07-20T02:53:51;16.70;97.00
7218;DHT22;3650;53.580;10.094;2023-07-20T02:56:18;16.80;97.10
7218;DHT22;3650;53.580;10.094;2023-07-20T02:58:46;16.80;97.00
7218;DHT22;3650;53.580;10.094;2023-07-20T03:01:12;16.70;97.00
7218;DHT22;3650;53.580;10.094;2023-07-20T03:03:41;16.80;96.80
7218;DHT22;3650;53.580;10.094;2023-07-20T03:06:11;16.80;97.00
7218;DHT22;3650;53.580;10.094;2023-07-20T03:08:38;16.80;97.00
7218;DHT22;3650;53.580;10.094;2023-07-20T03:11:05;16.80;97.30
7218;DHT22;3650;53.580;10.094;2023-07-20T03:13:31;16.80;97.40
7218;DHT22;3650;53.580;10.094;2023-07-20T03:16:00;16.80;97.20
7218;DHT22;3650;53.580;10.094;2023-07-20T03:18:26;16.80;97.20
7218;DHT22;3650;53.580;10.094;2023-07-20T03:20:53;16.90;97.10
7218;DHT22;3650;53.580;10.094;2023-07-20T03:23:20;16.90;97.00
7218;DHT22;3650;53.580;10.094;2023-07-20T03:25:47;16.90;97.00
7218;DHT22;3650;53.580;10.094;2023-07-20T03:28:14;16.90;96.80
7218;DHT22;3650;53.580;10.094;2023-07-20T03:30:41;17.00;96.40
7218;DHT22;3650;53.580;10.094;2023-07-20T03:33:09;17.00;96.10
7218;DHT22;3650;53.580;10.094;2023-07-20T03:35:36;17.00;96.00
7218;DHT22;3650;53.580;10.094;2023-07-20T03:38:03;17.00;95.80
7218;DHT22;3650;53.580;10.094;2023-07-20T03:40:30;16.90;95.70
7218;DHT22;3650;53.580;10.094;2023-07-20T03:42:57;17.00;95.70
7218;DHT22;3650;53.580;10.094;2023-07-20T03:45:23;17.00;95.60
7218;DHT22;3650;53.580;10.094;2023-07-20T03:47:50;17.00;95.60
7218;DHT22;3650;53.580;10.094;2023-07-20T03:50:18;17.00;95.40
7218;DHT22;3650;53.580;10.094;2023-07-20T03:52:45;17.00;95.10
7218;DHT22;3650;53.580;10.094;2023-07-20T03:55:12;17.00;95.00
7218;DHT22;3650;53.580;10.094;2023-07-20T03:57:38;17.00;94.90
7218;DHT22;3650;53.580;10.094;2023-07-20T04:00:07;17.00;94.80
7218;DHT22;3650;53.580;10.094;2023-07-20T04:02:34;17.00;94.60
7218;DHT22;3650;53.580;10.094;2023-07-20T04:05:01;17.00;94.60
7218;DHT22;3650;53.580;10.094;2023-07-20T04:07:29;17.00;94.40
7218;DHT22;3650;53.580;10.094;2023-07-20T04:09:56;16.90;94.30
7218;DHT22;3650;53.580;10.094;2023-07-20T04:12:23;16.90;94.40
7218;DHT22;3650;53.580;10.094;2023-07-20T04:14:49;16.90;94.60
7218;DHT22;3650;53.580;10.094;2023-07-20T04:17:17;16.90;94.70
7218;DHT22;3650;53.580;10.094;2023-07-20T04:19:44;16.90;95.00
7218;DHT22;3650;53.580;10.094;2023-07-20T04:22:11;16.90;95.00
7218;DHT22;3650;53.580;10.094;2023-07-20T04:24:42;16.80;95.10
7218;DHT22;3650;53.580;10.094;2023-07-20T04:27:09;16.80;95.40
7218;DHT22;3650;53.580;10.094;2023-07-20T04:29:35;16.80;95.60
7218;DHT22;3650;53.580;10.094;2023-07-20T04:32:03;16.80;95.80
7218;DHT22;3650;53.580;10.094;2023-07-20T04:34:29;16.80;95.80
7218;DHT22;3650;53.580;10.094;2023-07-20T04:36:56;16.80;95.80
7218;DHT22;3650;53.580;10.094;2023-07-20T04:39:23;16.80;95.70
7218;DHT22;3650;53.580;10.094;2023-07-20T04:41:51;16.70;95.70
7218;DHT22;3650;53.580;10.094;2023-07-20T04:44:18;16.80;95.90
7218;DHT22;3650;53.580;10.094;2023-07-20T04:46:44;16.80;96.30
7218;DHT22;3650;53.580;10.094;2023-07-20T04:49:11;16.80;96.30
7218;DHT22;3650;53.580;10.094;2023-07-20T04:51:38;16.80;96.30
7218;DHT22;3650;53.580;10.094;2023-07-20T04:54:05;16.80;96.10
7218;DHT22;3650;53.580;10.094;2023-07-20T04:56:32;16.80;96.10
7218;DHT22;3650;53.580;10.094;2023-07-20T04:59:00;16.80;96.30
7218;DHT22;3650;53.580;10.094;2023-07-20T05:01:27;16.80;96.50
7218;DHT22;3650;53.580;10.094;2023-07-20T05:03:54;16.80;96.50
7218;DHT22;3650;53.580;10.094;2023-07-20T05:06:20;16.90;96.50
7218;DHT22;3650;53.580;10.094;2023-07-20T05:08:47;16.80;96.50
7218;DHT22;3650;53.580;10.094;2023-07-20T05:11:14;16.90;96.50
7218;DHT22;3650;53.580;10.094;2023-07-20T05:13:41;16.90;96.30
7218;DHT22;3650;53.580;10.094;2023-07-20T05:16:09;16.90;96.10
7218;DHT22;3650;53.580;10.094;2023-07-20T05:18:36;16.90;96.10
7218;DHT22;3650;53.580;10.094;2023-07-20T05:21:03;16.90;96.10
7218;DHT22;3650;53.580;10.094;2023-07-20T05:23:30;17.00;96.00
7218;DHT22;3650;53.580;10.094;2023-07-20T05:25:58;17.00;95.80
7218;DHT22;3650;53.580;10.094;2023-07-20T05:28:25;17.00;95.60
7218;DHT22;3650;53.580;10.094;2023-07-20T05:30:52;17.10;95.60
7218;DHT22;3650;53.580;10.094;2023-07-20T05:33:21;17.00;95.50
7218;DHT22;3650;53.580;10.094;2023-07-20T05:35:48;17.10;95.40
7218;DHT22;3650;53.580;10.094;2023-07-20T05:38:15;17.00;95.10
7218;DHT22;3650;53.580;10.094;2023-07-20T05:40:45;17.00;94.90
7218;DHT22;3650;53.580;10.094;2023-07-20T05:43:12;17.00;95.00
7218;DHT22;3650;53.580;10.094;2023-07-20T05:45:41;17.00;95.20
7218;DHT22;3650;53.580;10.094;2023-07-20T05:48:08;16.90;95.30
7218;DHT22;3650;53.580;10.094;2023-07-20T05:50:38;17.00;95.70
7218;DHT22;3650;53.580;10.094;2023-07-20T05:53:05;17.00;96.00
7218;DHT22;3650;53.580;10.094;2023-07-20T05:55:32;17.00;96.10
7218;DHT22;3650;53.580;10.094;2023-07-20T05:57:58;17.00;96.30
7218;DHT22;3650;53.580;10.094;2023-07-20T06:00:25;17.00;96.40
7218;DHT22;3650;53.580;10.094;2023-07-20T06:02:52;17.00;96.40
7218;DHT22;3650;53.580;10.094;2023-07-20T06:05:21;17.10;95.90
7218;DHT22;3650;53.580;10.094;2023-07-20T06:07:50;17.10;95.80
7218;DHT22;3650;53.580;10.094;2023-07-20T06:10:18;17.10;95.70
7218;DHT22;3650;53.580;10.094;2023-07-20T06:12:44;17.20;95.40
7218;DHT22;3650;53.580;10.094;2023-07-20T06:15:24;17.30;95.40
7218;DHT22;3650;53.580;10.094;2023-07-20T06:20:19;17.30;94.50
7218;DHT22;3650;53.580;10.094;2023-07-20T06:22:46;17.40;94.00
7218;DHT22;3650;53.580;10.094;2023-07-20T06:25:14;17.40;93.70
7218;DHT22;3650;53.580;10.094;2023-07-20T06:27:42;17.40;93.70
7218;DHT22;3650;53.580;10.094;2023-07-20T06:30:10;17.40;93.00
7218;DHT22;3650;53.580;10.094;2023-07-20T06:32:37;17.50;92.50
7218;DHT22;3650;53.580;10.094;2023-07-20T06:35:05;17.50;92.80
7218;DHT22;3650;53.580;10.094;2023-07-20T06:37:32;17.50;92.80
7218;DHT22;3650;53.580;10.094;2023-07-20T06:39:59;17.50;92.60
7218;DHT22;3650;53.580;10.094;2023-07-20T06:42:27;17.50;92.30
7218;DHT22;3650;53.580;10.094;2023-07-20T06:44:54;17.50;91.60
7218;DHT22;3650;53.580;10.094;2023-07-20T06:47:21;17.50;91.50
7218;DHT22;3650;53.580;10.094;2023-07-20T06:49:47;17.50;91.80
7218;DHT22;3650;53.580;10.094;2023-07-20T06:52:15;17.50;92.20
7218;DHT22;3650;53.580;10.094;2023-07-20T06:54:42;17.50;92.10
7218;DHT22;3650;53.580;10.094;2023-07-20T06:57:09;17.60;92.00
7218;DHT22;3650;53.580;10.094;2023-07-20T06:59:37;17.50;91.70
7218;DHT22;3650;53.580;10.094;2023-07-20T07:02:04;17.50;91.40
7218;DHT22;3650;53.580;10.094;2023-07-20T07:04:31;17.50;91.80
7218;DHT22;3650;53.580;10.094;2023-07-20T07:06:59;17.50;90.90
7218;DHT22;3650;53.580;10.094;2023-07-20T07:09:25;17.50;88.80
7218;DHT22;3650;53.580;10.094;2023-07-20T07:11:52;17.50;89.40
7218;DHT22;3650;53.580;10.094;2023-07-20T07:14:20;17.50;89.20
7218;DHT22;3650;53.580;10.094;2023-07-20T07:16:48;17.50;87.20
7218;DHT22;3650;53.580;10.094;2023-07-20T07:19:14;17.50;87.20
7218;DHT22;3650;53.580;10.094;2023-07-20T07:21:41;17.50;87.10
7218;DHT22;3650;53.580;10.094;2023-07-20T07:24:08;17.50;86.50
7218;DHT22;3650;53.580;10.094;2023-07-20T07:26:35;17.50;83.70
7218;DHT22;3650;53.580;10.094;2023-07-20T07:29:02;17.50;83.00
7218;DHT22;3650;53.580;10.094;2023-07-20T07:31:29;17.50;81.20
7218;DHT22;3650;53.580;10.094;2023-07-20T07:33:58;17.50;78.90
7218;DHT22;3650;53.580;10.094;2023-07-20T07:36:24;17.50;75.40
7218;DHT22;3650;53.580;10.094;2023-07-20T07:38:51;17.50;75.20
7218;DHT22;3650;53.580;10.094;2023-07-20T07:41:18;17.50;75.30
7218;DHT22;3650;53.580;10.094;2023-07-20T07:43:46;17.50;73.60
7218;DHT22;3650;53.580;10.094;2023-07-20T07:46:13;17.50;74.70
7218;DHT22;3650;53.580;10.094;2023-07-20T07:48:40;17.50;75.00
7218;DHT22;3650;53.580;10.094;2023-07-20T07:51:08;17.50;74.20
7218;DHT22;3650;53.580;10.094;2023-07-20T07:53:34;17.50;80.70
7218;DHT22;3650;53.580;10.094;2023-07-20T07:56:02;17.50;82.30
7218;DHT22;3650;53.580;10.094;2023-07-20T07:58:29;17.50;84.10
7218;DHT22;3650;53.580;10.094;2023-07-20T08:00:56;17.30;84.10
7218;DHT22;3650;53.580;10.094;2023-07-20T08:03:23;17.20;85.00
7218;DHT22;3650;53.580;10.094;2023-07-20T08:05:50;17.20;87.30
7218;DHT22;3650;53.580;10.094;2023-07-20T08:08:19;17.20;88.60
7218;DHT22;3650;53.580;10.094;2023-07-20T08:10:45;17.10;90.10
7218;DHT22;3650;53.580;10.094;2023-07-20T08:13:12;17.10;90.50
7218;DHT22;3650;53.580;10.094;2023-07-20T08:15:48;17.10;90.50
7218;DHT22;3650;53.580;10.094;2023-07-20T08:18:15;17.10;89.10
7218;DHT22;3650;53.580;10.094;2023-07-20T08:20:43;17.10;87.00
7218;DHT22;3650;53.580;10.094;2023-07-20T08:23:10;17.10;86.00
7218;DHT22;3650;53.580;10.094;2023-07-20T08:25:38;17.10;85.40
7218;DHT22;3650;53.580;10.094;2023-07-20T08:28:09;17.10;84.60
7218;DHT22;3650;53.580;10.094;2023-07-20T08:30:43;17.20;87.00
7218;DHT22;3650;53.580;10.094;2023-07-20T08:33:10;17.20;87.50
7218;DHT22;3650;53.580;10.094;2023-07-20T08:35:37;17.20;86.50
7218;DHT22;3650;53.580;10.094;2023-07-20T08:38:04;17.30;81.00
7218;DHT22;3650;53.580;10.094;2023-07-20T08:40:31;17.30;79.70
7218;DHT22;3650;53.580;10.094;2023-07-20T08:43:00;17.30;80.80
7218;DHT22;3650;53.580;10.094;2023-07-20T08:45:27;17.40;78.90
7218;DHT22;3650;53.580;10.094;2023-07-20T08:47:56;17.50;77.10
7218;DHT22;3650;53.580;10.094;2023-07-20T08:50:26;17.50;76.00
7218;DHT22;3650;53.580;10.094;2023-07-20T08:52:57;17.60;72.80
7218;DHT22;3650;53.580;10.094;2023-07-20T08:55:24;17.60;71.70
7218;DHT22;3650;53.580;10.094;2023-07-20T08:57:53;17.70;70.00
7218;DHT22;3650;53.580;10.094;2023-07-20T09:00:22;17.70;70.60
7218;DHT22;3650;53.580;10.094;2023-07-20T09:02:53;17.80;71.40
7218;DHT22;3650;53.580;10.094;2023-07-20T09:05:20;17.80;74.30
7218;DHT22;3650;53.580;10.094;2023-07-20T09:07:47;17.90;74.20
7218;DHT22;3650;53.580;10.094;2023-07-20T09:10:14;17.90;76.00
7218;DHT22;3650;53.580;10.094;2023-07-20T09:12:41;17.90;76.50
7218;DHT22;3650;53.580;10.094;2023-07-20T09:15:10;18.00;77.50
7218;DHT22;3650;53.580;10.094;2023-07-20T09:17:38;18.00;77.30
7218;DHT22;3650;53.580;10.094;2023-07-20T09:20:06;18.10;76.30
7218;DHT22;3650;53.580;10.094;2023-07-20T09:22:37;18.10;76.80
7218;DHT22;3650;53.580;10.094;2023-07-20T09:25:06;18.20;74.90
7218;DHT22;3650;53.580;10.094;2023-07-20T09:27:37;18.20;74.60
7218;DHT22;3650;53.580;10.094;2023-07-20T09:30:05;18.30;73.70
7218;DHT22;3650;53.580;10.094;2023-07-20T09:32:39;18.30;73.40
7218;DHT22;3650;53.580;10.094;2023-07-20T09:35:11;18.40;72.40
7218;DHT22;3650;53.580;10.094;2023-07-20T09:37:39;18.40;69.30
7218;DHT22;3650;53.580;10.094;2023-07-20T09:40:07;18.40;73.60
7218;DHT22;3650;53.580;10.094;2023-07-20T09:42:35;18.30;74.30
7218;DHT22;3650;53.580;10.094;2023-07-20T09:45:06;18.30;76.10
7218;DHT22;3650;53.580;10.094;2023-07-20T09:47:36;18.20;74.50
7218;DHT22;3650;53.580;10.094;2023-07-20T09:50:05;18.10;75.00
7218;DHT22;3650;53.580;10.094;2023-07-20T09:52:37;18.10;78.60
7218;DHT22;3650;53.580;10.094;2023-07-20T09:55:06;18.10;76.80
7218;DHT22;3650;53.580;10.094;2023-07-20T09:57:33;18.00;75.30
7218;DHT22;3650;53.580;10.094;2023-07-20T10:00:00;18.00;71.60
7218;DHT22;3650;53.580;10.094;2023-07-20T10:02:32;18.00;72.30
7218;DHT22;3650;53.580;10.094;2023-07-20T10:05:03;18.00;72.90
7218;DHT22;3650;53.580;10.094;2023-07-20T10:07:33;17.90;68.90
7218;DHT22;3650;53.580;10.094;2023-07-20T10:10:02;17.90;66.80
7218;DHT22;3650;53.580;10.094;2023-07-20T10:12:31;18.00;68.80
7218;DHT22;3650;53.580;10.094;2023-07-20T10:15:05;18.00;70.20
7218;DHT22;3650;53.580;10.094;2023-07-20T10:17:38;18.00;70.10
7218;DHT22;3650;53.580;10.094;2023-07-20T10:20:07;18.10;70.30
7218;DHT22;3650;53.580;10.094;2023-07-20T10:22:36;18.10;69.70
7218;DHT22;3650;53.580;10.094;2023-07-20T10:25:04;18.20;71.00
7218;DHT22;3650;53.580;10.094;2023-07-20T10:27:32;18.30;69.60
7218;DHT22;3650;53.580;10.094;2023-07-20T10:29:59;18.30;69.80
7218;DHT22;3650;53.580;10.094;2023-07-20T10:32:28;18.40;71.70
7218;DHT22;3650;53.580;10.094;2023-07-20T10:34:56;18.50;71.90
7218;DHT22;3650;53.580;10.094;2023-07-20T10:37:46;18.50;64.90
7218;DHT22;3650;53.580;10.094;2023-07-20T10:40:32;18.50;65.40
7218;DHT22;3650;53.580;10.094;2023-07-20T10:43:01;18.70;65.10
7218;DHT22;3650;53.580;10.094;2023-07-20T10:45:50;18.70;64.70
7218;DHT22;3650;53.580;10.094;2023-07-20T10:48:19;18.70;66.00
7218;DHT22;3650;53.580;10.094;2023-07-20T10:51:08;18.70;63.50
7218;DHT22;3650;53.580;10.094;2023-07-20T10:53:34;18.70;61.30
7218;DHT22;3650;53.580;10.094;2023-07-20T10:56:08;18.70;59.30
7218;DHT22;3650;53.580;10.094;2023-07-20T10:58:37;18.70;59.70
7218;DHT22;3650;53.580;10.094;2023-07-20T11:01:04;18.80;59.20
7218;DHT22;3650;53.580;10.094;2023-07-20T11:03:33;18.80;56.40
7218;DHT22;3650;53.580;10.094;2023-07-20T11:06:31;18.90;55.90
7218;DHT22;3650;53.580;10.094;2023-07-20T11:09:09;18.90;58.40
7218;DHT22;3650;53.580;10.094;2023-07-20T11:11:38;18.90;63.10
7218;DHT22;3650;53.580;10.094;2023-07-20T11:14:06;18.90;63.70
7218;DHT22;3650;53.580;10.094;2023-07-20T11:16:38;18.90;64.30
7218;DHT22;3650;53.580;10.094;2023-07-20T11:19:13;18.90;63.70
7218;DHT22;3650;53.580;10.094;2023-07-20T11:21:44;19.00;62.60
7218;DHT22;3650;53.580;10.094;2023-07-20T11:24:11;19.00;61.20
7218;DHT22;3650;53.580;10.094;2023-07-20T11:26:46;19.00;59.80
7218;DHT22;3650;53.580;10.094;2023-07-20T11:29:13;19.00;57.60
7218;DHT22;3650;53.580;10.094;2023-07-20T11:31:42;18.90;57.50
7218;DHT22;3650;53.580;10.094;2023-07-20T11:34:11;18.90;58.20
7218;DHT22;3650;53.580;10.094;2023-07-20T11:36:40;18.90;58.60
7218;DHT22;3650;53.580;10.094;2023-07-20T11:39:10;18.90;60.60
7218;DHT22;3650;53.580;10.094;2023-07-20T11:41:37;19.00;61.30
7218;DHT22;3650;53.580;10.094;2023-07-20T11:44:05;19.00;62.50
7218;DHT22;3650;53.580;10.094;2023-07-20T11:46:33;19.10;59.20
7218;DHT22;3650;53.580;10.094;2023-07-20T11:49:01;19.10;53.10
7218;DHT22;3650;53.580;10.094;2023-07-20T11:51:28;19.20;51.80
7218;DHT22;3650;53.580;10.094;2023-07-20T11:53:55;19.30;52.80
7218;DHT22;3650;53.580;10.094;2023-07-20T11:56:25;19.30;48.70
7218;DHT22;3650;53.580;10.094;2023-07-20T11:58:55;19.30;48.40
7218;DHT22;3650;53.580;10.094;2023-07-20T12:01:23;19.40;50.30
7218;DHT22;3650;53.580;10.094;2023-07-20T12:03:50;19.40;51.80
7218;DHT22;3650;53.580;10.094;2023-07-20T12:06:17;19.40;51.20
7218;DHT22;3650;53.580;10.094;2023-07-20T12:08:44;19.50;51.80
7218;DHT22;3650;53.580;10.094;2023-07-20T12:11:11;19.50;53.30
7218;DHT22;3650;53.580;10.094;2023-07-20T12:13:42;19.50;54.20
7218;DHT22;3650;53.580;10.094;2023-07-20T12:16:10;19.60;54.10
7218;DHT22;3650;53.580;10.094;2023-07-20T12:18:38;19.60;55.40
7218;DHT22;3650;53.580;10.094;2023-07-20T12:21:06;19.60;54.60
7218;DHT22;3650;53.580;10.094;2023-07-20T12:23:38;19.50;55.30
7218;DHT22;3650;53.580;10.094;2023-07-20T12:26:08;19.40;56.50
7218;DHT22;3650;53.580;10.094;2023-07-20T12:28:40;19.30;56.80
7218;DHT22;3650;53.580;10.094;2023-07-20T12:31:07;19.20;57.30
7218;DHT22;3650;53.580;10.094;2023-07-20T12:33:35;19.10;58.10
7218;DHT22;3650;53.580;10.094;2023-07-20T12:36:02;19.00;59.20
7218;DHT22;3650;53.580;10.094;2023-07-20T12:38:29;19.00;61.90
7218;DHT22;3650;53.580;10.094;2023-07-20T12:40:57;18.90;64.00
7218;DHT22;3650;53.580;10.094;2023-07-20T12:43:25;18.90;66.00
7218;DHT22;3650;53.580;10.094;2023-07-20T12:45:54;18.80;66.10
7218;DHT22;3650;53.580;10.094;2023-07-20T12:48:21;18.80;66.70
7218;DHT22;3650;53.580;10.094;2023-07-20T12:50:47;18.80;68.30
7218;DHT22;3650;53.580;10.094;2023-07-20T12:53:14;18.80;68.40
7218;DHT22;3650;53.580;10.094;2023-07-20T12:55:41;18.80;65.20
7218;DHT22;3650;53.580;10.094;2023-07-20T12:58:08;18.70;66.60
7218;DHT22;3650;53.580;10.094;2023-07-20T13:00:35;18.80;66.40
7218;DHT22;3650;53.580;10.094;2023-07-20T13:03:03;18.80;65.70
7218;DHT22;3650;53.580;10.094;2023-07-20T13:05:30;18.80;65.00
7218;DHT22;3650;53.580;10.094;2023-07-20T13:07:58;18.80;64.00
7218;DHT22;3650;53.580;10.094;2023-07-20T13:10:25;18.80;65.00
7218;DHT22;3650;53.580;10.094;2023-07-20T13:12:52;18.80;65.50
7218;DHT22;3650;53.580;10.094;2023-07-20T13:15:18;18.90;66.30
7218;DHT22;3650;53.580;10.094;2023-07-20T13:17:45;18.90;64.20
7218;DHT22;3650;53.580;10.094;2023-07-20T13:20:14;18.90;64.40
7218;DHT22;3650;53.580;10.094;2023-07-20T13:22:41;19.00;66.00
7218;DHT22;3650;53.580;10.094;2023-07-20T13:25:08;19.10;65.60
7218;DHT22;3650;53.580;10.094;2023-07-20T13:27:35;19.20;61.20
7218;DHT22;3650;53.580;10.094;2023-07-20T13:30:02;19.30;60.00
7218;DHT22;3650;53.580;10.094;2023-07-20T13:32:32;19.40;58.00
7218;DHT22;3650;53.580;10.094;2023-07-20T13:34:59;19.50;52.90
7218;DHT22;3650;53.580;10.094;2023-07-20T13:37:27;19.60;47.60
7218;DHT22;3650;53.580;10.094;2023-07-20T13:39:54;19.80;46.50
7218;DHT22;3650;53.580;10.094;2023-07-20T13:42:20;19.90;48.10
7218;DHT22;3650;53.580;10.094;2023-07-20T13:44:47;20.00;49.50
7218;DHT22;3650;53.580;10.094;2023-07-20T13:47:14;20.10;45.70
7218;DHT22;3650;53.580;10.094;2023-07-20T13:49:41;20.20;45.50
7218;DHT22;3650;53.580;10.094;2023-07-20T13:52:08;20.30;44.00
7218;DHT22;3650;53.580;10.094;2023-07-20T13:54:36;20.40;43.70
7218;DHT22;3650;53.580;10.094;2023-07-20T13:57:03;20.40;41.90
7218;DHT22;3650;53.580;10.094;2023-07-20T13:59:30;20.40;42.60
7218;DHT22;3650;53.580;10.094;2023-07-20T14:01:57;20.40;40.70
7218;DHT22;3650;53.580;10.094;2023-07-20T14:04:23;20.40;41.70
7218;DHT22;3650;53.580;10.094;2023-07-20T14:06:51;20.40;40.80
7218;DHT22;3650;53.580;10.094;2023-07-20T14:09:17;20.50;37.30
7218;DHT22;3650;53.580;10.094;2023-07-20T14:11:46;20.50;37.40
7218;DHT22;3650;53.580;10.094;2023-07-20T14:14:13;20.50;37.70
7218;DHT22;3650;53.580;10.094;2023-07-20T14:16:39;20.60;38.70
7218;DHT22;3650;53.580;10.094;2023-07-20T14:19:06;20.60;34.90
7218;DHT22;3650;53.580;10.094;2023-07-20T14:21:33;20.70;35.40
7218;DHT22;3650;53.580;10.094;2023-07-20T14:24:00;20.70;37.80
7218;DHT22;3650;53.580;10.094;2023-07-20T14:26:27;20.70;38.00
7218;DHT22;3650;53.580;10.094;2023-07-20T14:28:56;20.70;39.80
7218;DHT22;3650;53.580;10.094;2023-07-20T14:31:23;20.70;39.60
7218;DHT22;3650;53.580;10.094;2023-07-20T14:33:50;20.70;37.60
7218;DHT22;3650;53.580;10.094;2023-07-20T14:36:17;20.50;37.90
7218;DHT22;3650;53.580;10.094;2023-07-20T14:38:43;20.50;38.50
7218;DHT22;3650;53.580;10.094;2023-07-20T14:41:10;20.60;40.10
7218;DHT22;3650;53.580;10.094;2023-07-20T14:43:37;20.70;39.10
7218;DHT22;3650;53.580;10.094;2023-07-20T14:46:06;20.90;37.10
7218;DHT22;3650;53.580;10.094;2023-07-20T14:48:33;21.10;34.10
7218;DHT22;3650;53.580;10.094;2023-07-20T14:50:59;21.30;33.80
7218;DHT22;3650;53.580;10.094;2023-07-20T14:53:26;21.40;31.50
7218;DHT22;3650;53.580;10.094;2023-07-20T14:55:58;21.60;30.10
7218;DHT22;3650;53.580;10.094;2023-07-20T14:58:25;21.80;30.20
7218;DHT22;3650;53.580;10.094;2023-07-20T15:00:52;22.00;29.90
7218;DHT22;3650;53.580;10.094;2023-07-20T15:03:20;22.00;30.00
7218;DHT22;3650;53.580;10.094;2023-07-20T15:05:47;22.10;30.10
7218;DHT22;3650;53.580;10.094;2023-07-20T15:08:14;22.10;30.20
7218;DHT22;3650;53.580;10.094;2023-07-20T15:10:40;22.10;30.40
7218;DHT22;3650;53.580;10.094;2023-07-20T15:13:09;22.00;29.90
7218;DHT22;3650;53.580;10.094;2023-07-20T15:15:36;22.00;29.30
7218;DHT22;3650;53.580;10.094;2023-07-20T15:18:03;21.80;30.50
7218;DHT22;3650;53.580;10.094;2023-07-20T15:20:31;21.80;29.90
7218;DHT22;3650;53.580;10.094;2023-07-20T15:22:59;21.60;29.40
7218;DHT22;3650;53.580;10.094;2023-07-20T15:25:25;21.40;31.00
7218;DHT22;3650;53.580;10.094;2023-07-20T15:27:52;21.30;31.90
7218;DHT22;3650;53.580;10.094;2023-07-20T15:30:19;21.30;33.90
7218;DHT22;3650;53.580;10.094;2023-07-20T15:32:47;21.10;34.00
7218;DHT22;3650;53.580;10.094;2023-07-20T15:35:14;21.00;33.40
7218;DHT22;3650;53.580;10.094;2023-07-20T15:37:42;20.90;34.00
7218;DHT22;3650;53.580;10.094;2023-07-20T15:40:10;20.90;35.40
7218;DHT22;3650;53.580;10.094;2023-07-20T15:42:37;20.90;36.70
7218;DHT22;3650;53.580;10.094;2023-07-20T15:45:05;20.90;35.50
7218;DHT22;3650;53.580;10.094;2023-07-20T15:47:31;20.80;35.20
7218;DHT22;3650;53.580;10.094;2023-07-20T15:49:58;20.80;36.30
7218;DHT22;3650;53.580;10.094;2023-07-20T15:52:25;20.80;36.40
7218;DHT22;3650;53.580;10.094;2023-07-20T15:54:53;20.70;33.80